createdAt,value
2022-11-14T00:00:53.683Z,8.50
2022-11-14T00:03:40.221Z,8.50
2022-11-14T00:06:28.181Z,8.50
2022-11-14T00:09:15.008Z,8.50
2022-11-14T00:12:01.472Z,8.50
2022-11-14T00:14:48.154Z,8.50
2022-11-14T00:17:34.857Z,8.50
2022-11-14T00:20:21.667Z,8.50
2022-11-14T00:23:09.408Z,8.50
2022-11-14T00:25:55.962Z,8.50
2022-11-14T00:28:42.260Z,8.50
2022-11-14T00:31:28.744Z,8.60
2022-11-14T00:34:15.240Z,8.60
2022-11-14T00:37:02.044Z,8.50
2022-11-14T00:39:50.207Z,8.50
2022-11-14T00:42:36.771Z,8.50
2022-11-14T00:45:23.341Z,8.50
2022-11-14T00:48:10.035Z,8.50
2022-11-14T00:50:56.868Z,8.50
2022-11-14T00:53:43.510Z,8.50
2022-11-14T00:56:31.716Z,8.50
2022-11-14T00:59:18.210Z,8.40
2022-11-14T01:02:04.724Z,8.40
2022-11-14T01:04:51.159Z,8.40
2022-11-14T01:07:37.947Z,8.40
2022-11-14T01:10:24.581Z,8.40
2022-11-14T01:13:12.756Z,8.50
2022-11-14T01:16:02.369Z,8.60
2022-11-14T01:18:49.037Z,8.50
2022-11-14T01:21:35.527Z,8.40
2022-11-14T01:24:22.213Z,8.40
2022-11-14T01:27:08.716Z,8.40
2022-11-14T01:29:56.518Z,8.40
2022-11-14T01:32:42.812Z,8.40
2022-11-14T01:35:29.486Z,8.40
2022-11-14T01:38:16.740Z,8.40
2022-11-14T01:41:03.974Z,8.50
2022-11-14T01:43:51.367Z,8.50
2022-11-14T01:46:43.084Z,8.50
2022-11-14T01:49:36.129Z,8.50
2022-11-14T01:52:26.487Z,8.50
2022-11-14T01:55:13.145Z,8.50
2022-11-14T01:58:01.195Z,8.50
2022-11-14T02:00:47.731Z,8.50
2022-11-14T02:03:39.340Z,8.50
2022-11-14T02:06:29.097Z,8.50
2022-11-14T02:09:15.897Z,8.50
2022-11-14T02:12:04.458Z,8.40
2022-11-14T02:14:55.693Z,8.50
2022-11-14T02:17:43.796Z,8.40
2022-11-14T02:20:37.767Z,8.50
2022-11-14T02:23:28.185Z,8.40
2022-11-14T02:26:18.572Z,8.50
2022-11-14T02:29:05.772Z,8.50
2022-11-14T02:31:52.638Z,8.50
2022-11-14T02:34:39.091Z,8.40
2022-11-14T02:37:26.921Z,8.40
2022-11-14T02:40:13.634Z,8.40
2022-11-14T02:43:00.570Z,8.40
2022-11-14T02:45:47.470Z,8.40
2022-11-14T02:48:34.104Z,8.40
2022-11-14T02:51:20.592Z,8.40
2022-11-14T02:54:08.559Z,8.20
2022-11-14T02:56:55.379Z,8.30
2022-11-14T02:59:41.983Z,8.30
2022-11-14T03:02:28.400Z,8.30
2022-11-14T03:05:15.459Z,8.30
2022-11-14T03:08:02.125Z,8.20
2022-11-14T03:10:49.777Z,8.20
2022-11-14T03:13:37.044Z,8.20
2022-11-14T03:16:24.284Z,8.20
2022-11-14T03:19:10.937Z,8.20
2022-11-14T03:21:57.438Z,8.20
2022-11-14T03:24:43.887Z,8.20
2022-11-14T03:27:31.709Z,8.20
2022-11-14T03:30:18.590Z,8.20
2022-11-14T03:33:05.453Z,8.20
2022-11-14T03:35:52.010Z,8.20
2022-11-14T03:38:39.137Z,8.20
2022-11-14T03:41:25.893Z,8.20
2022-11-14T03:44:13.637Z,8.20
2022-11-14T03:47:00.163Z,8.20
2022-11-14T03:49:46.710Z,8.20
2022-11-14T03:52:33.137Z,8.20
2022-11-14T03:55:19.666Z,8.20
2022-11-14T03:58:06.268Z,8.20
2022-11-14T04:00:56.181Z,8.20
2022-11-14T04:03:43.169Z,8.20
2022-11-14T04:06:30.091Z,8.20
2022-11-14T04:09:16.511Z,8.20
2022-11-14T04:12:02.992Z,8.10
2022-11-14T04:14:49.391Z,8.20
2022-11-14T04:17:39.972Z,8.10
2022-11-14T04:20:26.923Z,8.10
2022-11-14T04:23:13.334Z,8.10
2022-11-14T04:25:59.952Z,8.10
2022-11-14T04:28:46.289Z,8.10
2022-11-14T04:31:32.877Z,8.20
2022-11-14T04:34:20.642Z,8.20
2022-11-14T04:37:07.030Z,8.10
2022-11-14T04:39:53.498Z,8.10
2022-11-14T04:42:40.177Z,8.10
2022-11-14T04:45:26.765Z,8.10
2022-11-14T04:48:13.733Z,8.10
2022-11-14T04:51:01.767Z,8.10
2022-11-14T04:53:48.189Z,8.10
2022-11-14T04:56:34.825Z,8.10
2022-11-14T04:59:21.442Z,8.10
2022-11-14T05:02:07.753Z,8.10
2022-11-14T05:04:54.348Z,8.10
2022-11-14T05:07:42.321Z,8.10
2022-11-14T05:10:28.805Z,8.10
2022-11-14T05:13:15.313Z,8.10
2022-11-14T05:16:02.422Z,8.10
2022-11-14T05:18:49.095Z,8.20
2022-11-14T05:21:35.655Z,8.10
2022-11-14T05:24:23.591Z,8.10
2022-11-14T05:27:10.314Z,8.10
2022-11-14T05:29:56.996Z,8.10
2022-11-14T05:32:43.558Z,8.10
2022-11-14T05:35:30.284Z,8.10
2022-11-14T05:38:16.686Z,8.20
2022-11-14T05:41:08.688Z,8.20
2022-11-14T05:43:55.154Z,8.20
2022-11-14T05:46:41.811Z,8.10
2022-11-14T05:49:28.142Z,8.20
2022-11-14T05:52:14.469Z,8.10
2022-11-14T05:55:00.756Z,8.20
2022-11-14T05:57:48.551Z,8.20
2022-11-14T06:00:42.386Z,8.10
2022-11-14T06:03:34.707Z,8.20
2022-11-14T06:06:22.540Z,8.20
2022-11-14T06:09:09.144Z,8.20
2022-11-14T06:11:55.547Z,8.20
2022-11-14T06:14:43.354Z,8.20
2022-11-14T06:17:29.740Z,8.20
2022-11-14T06:20:16.740Z,8.20
2022-11-14T06:23:03.366Z,8.30
2022-11-14T06:25:49.842Z,8.20
2022-11-14T06:28:36.354Z,8.20
2022-11-14T06:31:25.380Z,8.20
2022-11-14T06:34:12.958Z,8.20
2022-11-14T06:36:59.493Z,8.20
2022-11-14T06:39:45.821Z,8.20
2022-11-14T06:42:32.284Z,8.30
2022-11-14T06:45:18.936Z,8.30
2022-11-14T06:48:07.132Z,8.30
2022-11-14T06:50:54.549Z,8.30
2022-11-14T06:53:42.104Z,8.30
2022-11-14T06:56:28.716Z,8.30
2022-11-14T06:59:15.376Z,8.50
2022-11-14T07:02:02.208Z,8.50
2022-11-14T07:04:50.006Z,8.40
2022-11-14T07:07:36.579Z,8.40
2022-11-14T07:10:23.154Z,8.40
2022-11-14T07:13:11.463Z,8.40
2022-11-14T07:15:58.303Z,8.40
2022-11-14T07:18:44.923Z,8.50
2022-11-14T07:21:34.951Z,8.50
2022-11-14T07:24:21.582Z,8.40
2022-11-14T07:27:09.278Z,8.50
2022-11-14T07:29:55.954Z,8.50
2022-11-14T07:32:42.479Z,8.50
2022-11-14T07:35:28.834Z,8.50
2022-11-14T07:38:17.076Z,8.40
2022-11-14T07:41:05.742Z,8.40
2022-11-14T07:43:52.204Z,8.40
2022-11-14T07:46:38.729Z,8.40
2022-11-14T07:49:25.194Z,8.40
2022-11-14T07:52:11.826Z,8.40
2022-11-14T07:54:59.626Z,8.40
2022-11-14T07:57:49.262Z,8.30
2022-11-14T08:00:36.612Z,8.30
2022-11-14T08:03:23.116Z,8.20
2022-11-14T08:06:11.434Z,8.20
2022-11-14T08:08:58.230Z,8.20
2022-11-14T08:11:48.663Z,8.20
2022-11-14T08:14:35.282Z,8.20
2022-11-14T08:17:22.252Z,8.20
2022-11-14T08:20:10.939Z,8.20
2022-11-14T08:23:04.048Z,8.30
2022-11-14T08:25:50.689Z,8.30
2022-11-14T08:28:38.564Z,8.40
2022-11-14T08:31:26.014Z,8.40
2022-11-14T08:34:12.609Z,8.60
2022-11-14T08:36:59.322Z,8.50
2022-11-14T08:39:46.159Z,8.70
2022-11-14T08:42:32.678Z,8.60
2022-11-14T08:45:20.408Z,8.60
2022-11-14T08:48:07.600Z,8.70
2022-11-14T08:50:54.353Z,8.70
2022-11-14T08:53:40.976Z,8.60
2022-11-14T08:56:27.148Z,8.70
2022-11-14T08:59:13.686Z,8.60
2022-11-14T09:02:01.565Z,8.60
2022-11-14T09:04:48.060Z,8.60
2022-11-14T09:07:34.892Z,8.60
2022-11-14T09:10:22.035Z,8.70
2022-11-14T09:13:08.586Z,8.70
2022-11-14T09:15:55.256Z,8.70
2022-11-14T09:18:43.089Z,8.70
2022-11-14T09:21:29.581Z,8.70
2022-11-14T09:24:16.015Z,8.70
2022-11-14T09:27:02.488Z,8.70
2022-11-14T09:29:48.826Z,8.70
2022-11-14T09:32:35.294Z,8.80
2022-11-14T09:35:23.037Z,8.90
2022-11-14T09:38:13.400Z,8.90
2022-11-14T09:41:10.028Z,8.90
2022-11-14T09:44:19.133Z,8.90
2022-11-14T09:47:16.645Z,8.90
2022-11-14T09:50:12.169Z,8.80
2022-11-14T09:53:08.923Z,8.80
2022-11-14T09:55:55.508Z,8.90
2022-11-14T09:58:43.093Z,9.00
2022-11-14T10:01:38.124Z,8.90
2022-11-14T10:04:40.556Z,8.90
2022-11-14T10:07:38.853Z,8.90
2022-11-14T10:10:43.594Z,8.80
2022-11-14T10:14:04.250Z,8.80
2022-11-14T10:17:00.943Z,8.70
2022-11-14T10:19:56.498Z,8.70
2022-11-14T10:23:01.522Z,8.70
2022-11-14T10:25:56.798Z,8.60
2022-11-14T10:28:58.401Z,8.60
2022-11-14T10:31:55.042Z,8.60
2022-11-14T10:34:49.656Z,8.60
2022-11-14T10:37:42.952Z,8.70
2022-11-14T10:40:36.645Z,8.70
2022-11-14T10:43:29.454Z,8.90
2022-11-14T10:46:20.594Z,8.90
2022-11-14T10:49:17.382Z,8.90
2022-11-14T10:52:08.765Z,9.00
2022-11-14T10:55:01.198Z,9.00
2022-11-14T10:57:48.319Z,9.00
2022-11-14T11:00:36.421Z,8.90
2022-11-14T11:03:42.845Z,9.00
2022-11-14T11:06:30.484Z,9.00
2022-11-14T11:09:39.424Z,8.90
2022-11-14T11:12:45.965Z,8.90
2022-11-14T11:15:40.700Z,8.90
2022-11-14T11:18:31.065Z,8.90
2022-11-14T11:21:19.610Z,8.90
2022-11-14T11:24:07.067Z,8.90
2022-11-14T11:27:14.679Z,8.90
2022-11-14T11:30:18.484Z,8.90
2022-11-14T11:33:23.466Z,8.90
2022-11-14T11:36:16.119Z,9.00
2022-11-14T11:39:03.414Z,9.00
2022-11-14T11:45:00.362Z,8.90
2022-11-14T11:47:54.128Z,8.90
2022-11-14T11:50:41.429Z,9.00
2022-11-14T11:53:35.207Z,8.90
2022-11-14T11:56:27.171Z,8.90
2022-11-14T11:59:25.213Z,8.90
2022-11-14T12:02:22.725Z,9.00
2022-11-14T12:05:17.316Z,8.90
2022-11-14T12:08:07.547Z,8.90
2022-11-14T12:10:57.106Z,8.90
2022-11-14T12:14:08.947Z,8.90
2022-11-14T12:17:12.135Z,8.80
2022-11-14T12:20:17.676Z,8.80
2022-11-14T12:23:32.089Z,8.80
2022-11-14T12:26:44.687Z,8.70
2022-11-14T12:29:49.668Z,8.80
2022-11-14T12:32:45.641Z,8.80
2022-11-14T12:35:35.468Z,8.70
2022-11-14T12:38:23.811Z,8.80
2022-11-14T12:41:11.054Z,8.70
2022-11-14T12:44:31.982Z,8.70
2022-11-14T12:47:23.402Z,8.70
2022-11-14T12:50:35.074Z,8.70
2022-11-14T12:53:42.218Z,8.70
2022-11-14T12:57:00.975Z,8.70
2022-11-14T13:00:03.517Z,8.70
2022-11-14T13:03:18.079Z,8.60
2022-11-14T13:06:09.351Z,8.60
2022-11-14T13:09:19.327Z,8.50
2022-11-14T13:12:48.127Z,8.50
2022-11-14T13:16:06.300Z,8.40
2022-11-14T13:19:13.632Z,8.40
2022-11-14T13:22:40.025Z,8.40
2022-11-14T13:25:27.232Z,8.30
2022-11-14T13:28:45.378Z,8.40
2022-11-14T13:31:50.074Z,8.30
2022-11-14T13:34:41.528Z,8.20
2022-11-14T13:37:44.596Z,8.20
2022-11-14T13:40:38.532Z,8.20
2022-11-14T13:43:35.037Z,8.10
2022-11-14T13:46:34.544Z,8.10
2022-11-14T13:49:38.978Z,8.10
2022-11-14T13:52:29.732Z,8.10
2022-11-14T13:55:22.061Z,8.10
2022-11-14T13:58:21.921Z,8.00
2022-11-14T14:01:22.893Z,8.00
2022-11-14T14:04:24.615Z,8.00
2022-11-14T14:07:22.263Z,8.00
2022-11-14T14:10:15.692Z,8.00
2022-11-14T14:13:14.555Z,7.90
2022-11-14T14:16:08.206Z,7.90
2022-11-14T14:19:03.761Z,7.90
2022-11-14T14:21:58.195Z,7.90
2022-11-14T14:24:55.794Z,7.80
2022-11-14T14:27:55.790Z,7.80
2022-11-14T14:30:42.314Z,7.90
2022-11-14T14:33:30.161Z,7.80
2022-11-14T14:36:22.755Z,7.90
2022-11-14T14:39:18.854Z,7.90
2022-11-14T14:42:12.137Z,7.90
2022-11-14T14:44:59.443Z,7.90
2022-11-14T14:47:48.424Z,7.80
2022-11-14T14:50:39.695Z,7.90
2022-11-14T14:53:28.524Z,7.90
2022-11-14T14:56:21.124Z,7.90
2022-11-14T14:59:19.850Z,7.90
2022-11-14T15:02:17.543Z,7.80
2022-11-14T15:05:06.161Z,7.70
2022-11-14T15:07:54.955Z,7.80
2022-11-14T15:10:42.346Z,7.70
2022-11-14T15:13:30.778Z,7.70
2022-11-14T15:16:18.868Z,7.70
2022-11-14T15:19:05.855Z,7.70
2022-11-14T15:22:06.225Z,7.80
2022-11-14T15:25:23.937Z,7.80
2022-11-14T15:28:22.273Z,7.70
2022-11-14T15:31:20.123Z,7.80
2022-11-14T15:34:22.237Z,7.80
2022-11-14T15:37:21.261Z,7.70
2022-11-14T15:40:19.079Z,7.70
2022-11-14T15:43:36.628Z,7.60
2022-11-14T15:46:38.105Z,7.70
2022-11-14T15:49:26.322Z,7.60
2022-11-14T15:52:21.932Z,7.60
2022-11-14T15:55:18.048Z,7.50
2022-11-14T15:58:27.013Z,7.50
2022-11-14T16:01:16.904Z,7.40
2022-11-14T16:04:04.935Z,7.50
2022-11-14T16:06:51.477Z,7.60
2022-11-14T16:09:38.354Z,7.50
2022-11-14T16:12:24.971Z,7.50
2022-11-14T16:15:12.075Z,7.50
2022-11-14T16:17:58.903Z,7.50
2022-11-14T16:20:46.821Z,7.40
2022-11-14T16:23:33.666Z,7.40
2022-11-14T16:26:21.993Z,7.30
2022-11-14T16:29:09.179Z,7.30
2022-11-14T16:31:56.331Z,7.30
2022-11-14T16:34:43.044Z,7.20
2022-11-14T16:37:31.048Z,7.20
2022-11-14T16:40:21.377Z,7.20
2022-11-14T16:43:07.797Z,7.20
2022-11-14T16:45:54.164Z,7.20
2022-11-14T16:48:40.701Z,7.20
2022-11-14T16:51:48.410Z,7.20
2022-11-14T16:54:35.297Z,7.20
2022-11-14T16:57:21.965Z,7.20
2022-11-14T17:00:12.330Z,7.30
2022-11-14T17:02:59.242Z,7.20
2022-11-14T17:05:47.014Z,7.20
2022-11-14T17:08:33.473Z,7.20
2022-11-14T17:11:21.526Z,7.10
2022-11-14T17:14:08.180Z,7.20
2022-11-14T17:16:55.305Z,7.20
2022-11-14T17:19:46.254Z,7.20
2022-11-14T17:22:33.402Z,7.20
2022-11-14T17:25:20.042Z,7.20
2022-11-14T17:28:08.488Z,7.20
2022-11-14T17:30:55.240Z,7.20
2022-11-14T17:33:41.879Z,7.20
2022-11-14T17:36:31.351Z,7.10
2022-11-14T17:39:17.819Z,7.10
2022-11-14T17:42:05.516Z,7.10
2022-11-14T17:44:54.139Z,7.10
2022-11-14T17:47:40.911Z,7.10
2022-11-14T17:50:27.531Z,7.10
2022-11-14T17:53:14.146Z,7.20
2022-11-14T17:56:00.849Z,7.20
2022-11-14T17:58:48.050Z,7.10
2022-11-14T18:01:36.132Z,7.20
2022-11-14T18:04:23.208Z,7.10
2022-11-14T18:07:10.218Z,7.20
2022-11-14T18:09:57.152Z,7.10
2022-11-14T18:12:43.606Z,7.10
2022-11-14T18:15:30.141Z,7.10
2022-11-14T18:18:19.469Z,7.10
2022-11-14T18:21:10.543Z,7.10
2022-11-14T18:23:59.222Z,7.10
2022-11-14T18:26:45.500Z,7.10
2022-11-14T18:29:32.072Z,7.10
2022-11-14T18:32:19.101Z,7.10
2022-11-14T18:35:08.057Z,7.10
2022-11-14T18:37:54.675Z,7.00
2022-11-14T18:40:44.383Z,7.00
2022-11-14T18:43:33.320Z,7.00
2022-11-14T18:46:21.673Z,7.00
2022-11-14T18:49:08.749Z,7.00
2022-11-14T18:51:57.045Z,7.00
2022-11-14T18:54:43.536Z,7.00
2022-11-14T18:57:29.880Z,7.00
2022-11-14T19:00:17.180Z,7.00
2022-11-14T19:03:06.478Z,7.00
2022-11-14T19:05:53.129Z,7.00
2022-11-14T19:08:41.838Z,7.00
2022-11-14T19:11:46.288Z,7.00
2022-11-14T19:14:33.170Z,7.00
2022-11-14T19:17:20.965Z,7.10
2022-11-14T19:20:14.014Z,7.00
2022-11-14T19:23:00.903Z,7.00
2022-11-14T19:25:48.609Z,7.00
2022-11-14T19:28:35.264Z,7.10
2022-11-14T19:31:23.172Z,7.10
2022-11-14T19:34:10.364Z,7.10
2022-11-14T19:40:51.817Z,7.00
2022-11-14T19:43:39.131Z,7.00
2022-11-14T19:46:27.181Z,7.00
2022-11-14T19:49:13.765Z,6.90
2022-11-14T19:52:00.360Z,6.90
2022-11-14T19:54:49.138Z,7.00
2022-11-14T19:57:37.035Z,7.00
2022-11-14T20:00:24.908Z,6.90
2022-11-14T20:03:12.750Z,7.00
2022-11-14T20:05:59.766Z,6.90
2022-11-14T20:08:46.761Z,6.90
2022-11-14T20:11:33.650Z,6.90
2022-11-14T20:14:21.948Z,6.90
2022-11-14T20:17:08.864Z,7.00
2022-11-14T20:19:55.499Z,6.90
2022-11-14T20:22:42.144Z,6.80
2022-11-14T20:25:28.659Z,6.90
2022-11-14T20:28:15.255Z,6.90
2022-11-14T20:31:03.897Z,6.90
2022-11-14T20:33:51.618Z,6.80
2022-11-14T20:37:08.667Z,6.80
2022-11-14T20:39:44.918Z,6.90
2022-11-14T20:42:31.457Z,6.90
2022-11-14T20:45:17.988Z,6.90
2022-11-14T20:48:06.732Z,6.90
2022-11-14T20:50:53.258Z,6.90
2022-11-14T20:53:39.917Z,6.80
2022-11-14T20:56:26.423Z,6.80
2022-11-14T20:59:12.823Z,6.80
2022-11-14T21:01:59.583Z,6.80
2022-11-14T21:04:47.656Z,6.80
2022-11-14T21:07:34.283Z,6.80
2022-11-14T21:10:38.847Z,6.90
2022-11-14T21:13:42.757Z,6.90
2022-11-14T21:16:33.450Z,6.90
2022-11-14T21:19:20.677Z,6.90
2022-11-14T21:22:08.413Z,6.90
2022-11-14T21:24:54.897Z,6.80
2022-11-14T21:27:41.755Z,6.80
2022-11-14T21:30:28.171Z,6.80
2022-11-14T21:33:14.883Z,6.80
2022-11-14T21:36:11.365Z,6.80
2022-11-14T21:39:14.670Z,6.70
2022-11-14T21:42:01.934Z,6.70
2022-11-14T21:44:51.248Z,6.70
2022-11-14T21:47:37.793Z,6.70
2022-11-14T21:50:24.407Z,6.80
2022-11-14T21:53:16.117Z,6.80
2022-11-14T21:56:12.740Z,6.80
2022-11-14T21:59:14.038Z,6.80
2022-11-14T22:02:18.258Z,6.80
2022-11-14T22:05:05.595Z,6.80
2022-11-14T22:07:52.209Z,6.80
2022-11-14T22:10:38.451Z,6.70
2022-11-14T22:13:26.235Z,6.70
2022-11-14T22:16:17.157Z,6.60
2022-11-14T22:19:05.568Z,6.60
2022-11-14T22:21:52.160Z,6.50
2022-11-14T22:24:38.670Z,6.50
2022-11-14T22:27:25.003Z,6.50
2022-11-14T22:30:13.987Z,6.50
2022-11-14T22:33:01.102Z,6.50
2022-11-14T22:35:47.953Z,6.50
2022-11-14T22:38:36.247Z,6.50
2022-11-14T22:41:29.172Z,6.40
2022-11-14T22:44:28.212Z,6.40
2022-11-14T22:47:15.968Z,6.40
2022-11-14T22:50:02.410Z,6.40
2022-11-14T22:52:48.827Z,6.40
2022-11-14T22:55:35.450Z,6.40
2022-11-14T22:58:21.862Z,6.40
2022-11-14T23:01:13.243Z,6.30
2022-11-14T23:04:03.180Z,6.30
2022-11-14T23:06:50.030Z,6.30
2022-11-14T23:09:36.704Z,6.30
2022-11-14T23:12:23.126Z,6.30
2022-11-14T23:15:10.492Z,6.30
2022-11-14T23:17:58.813Z,6.30
2022-11-14T23:20:47.017Z,6.30
2022-11-14T23:23:33.678Z,6.30
2022-11-14T23:26:20.250Z,6.30
2022-11-14T23:29:06.658Z,6.30
2022-11-14T23:31:53.047Z,6.30
2022-11-14T23:34:39.488Z,6.20
2022-11-14T23:37:27.307Z,6.20
2022-11-14T23:40:13.886Z,6.20
2022-11-14T23:43:00.528Z,6.20
2022-11-14T23:45:48.257Z,6.30
2022-11-14T23:48:34.925Z,6.20
2022-11-14T23:51:21.441Z,6.20
2022-11-14T23:54:09.287Z,6.20
2022-11-14T23:56:57.764Z,6.20
2022-11-14T23:59:48.136Z,6.20
